createdAt,value
2023-03-21T00:00:51.892Z,5.30
2023-03-21T00:03:21.907Z,3.83
2023-03-21T00:05:53.519Z,4.73
2023-03-21T00:08:22.941Z,4.40
2023-03-21T00:10:57.561Z,4.30
2023-03-21T00:13:28.810Z,4.40
2023-03-21T00:16:06.261Z,4.00
2023-03-21T00:18:42.506Z,4.17
2023-03-21T00:21:40.988Z,4.00
2023-03-21T00:24:03.582Z,4.10
2023-03-21T00:26:31.744Z,3.33
2023-03-21T00:29:01.678Z,3.43
2023-03-21T00:31:29.804Z,2.90
2023-03-21T00:34:02.709Z,3.23
2023-03-21T00:36:32.874Z,3.77
2023-03-21T00:39:01.854Z,2.73
2023-03-21T00:41:45.322Z,3.40
2023-03-21T00:44:15.845Z,2.93
2023-03-21T00:47:00.752Z,3.57
2023-03-21T00:49:38.200Z,2.90
2023-03-21T00:52:18.298Z,3.00
2023-03-21T00:54:48.407Z,2.30
2023-03-21T00:57:16.887Z,3.13
2023-03-21T00:59:44.984Z,2.83
2023-03-21T01:02:15.217Z,2.80
2023-03-21T01:04:44.893Z,3.07
2023-03-21T01:07:13.017Z,3.13
2023-03-21T01:09:41.102Z,3.13
2023-03-21T01:12:10.089Z,3.57
2023-03-21T01:14:38.641Z,2.80
2023-03-21T01:17:06.830Z,3.13
2023-03-21T01:19:48.741Z,3.30
2023-03-21T01:22:21.259Z,3.47
2023-03-21T01:24:56.915Z,3.00
2023-03-21T01:27:28.664Z,3.10
2023-03-21T01:29:56.884Z,3.10
2023-03-21T01:32:25.312Z,2.77
2023-03-21T01:34:53.564Z,2.57
2023-03-21T01:37:23.121Z,2.87
2023-03-21T01:39:51.440Z,2.80
2023-03-21T01:42:19.987Z,2.60
2023-03-21T01:44:56.821Z,2.60
2023-03-21T01:47:25.100Z,3.10
2023-03-21T01:49:56.573Z,2.63
2023-03-21T01:52:36.954Z,2.50
2023-03-21T01:55:07.893Z,2.40
2023-03-21T01:57:49.507Z,2.77
2023-03-21T02:00:29.642Z,3.33
2023-03-21T02:03:09.740Z,3.23
2023-03-21T02:05:45.459Z,3.93
2023-03-21T02:08:15.032Z,3.27
2023-03-21T02:10:45.297Z,2.90
2023-03-21T02:13:13.487Z,3.30
2023-03-21T02:15:48.176Z,3.30
2023-03-21T02:18:22.598Z,2.40
2023-03-21T02:21:12.221Z,3.00
2023-03-21T02:24:22.033Z,2.37
2023-03-21T02:27:04.143Z,2.73
2023-03-21T02:29:55.847Z,2.80
2023-03-21T02:32:37.890Z,3.30
2023-03-21T02:35:30.605Z,2.93
2023-03-21T02:38:05.120Z,3.10
2023-03-21T02:40:39.866Z,3.37
2023-03-21T02:43:23.039Z,2.83
2023-03-21T02:45:59.281Z,3.13
2023-03-21T02:48:44.453Z,2.63
2023-03-21T02:51:21.140Z,2.77
2023-03-21T02:54:21.383Z,2.73
2023-03-21T02:56:43.072Z,3.37
2023-03-21T02:59:11.886Z,2.93
2023-03-21T03:01:40.010Z,3.30
2023-03-21T03:04:19.590Z,4.07
2023-03-21T03:07:08.680Z,3.67
2023-03-21T03:09:49.101Z,3.30
2023-03-21T03:12:26.670Z,3.53
2023-03-21T03:15:05.222Z,3.17
2023-03-21T03:17:45.085Z,4.47
2023-03-21T03:20:27.201Z,3.73
2023-03-21T03:23:01.561Z,4.33
2023-03-21T03:25:42.814Z,3.30
2023-03-21T03:28:14.432Z,3.80
2023-03-21T03:30:57.160Z,3.60
2023-03-21T03:33:34.804Z,3.97
2023-03-21T03:36:06.816Z,4.07
2023-03-21T03:38:37.235Z,3.77
2023-03-21T03:41:12.272Z,4.30
2023-03-21T03:43:45.156Z,4.13
2023-03-21T03:46:19.035Z,4.00
2023-03-21T03:48:53.279Z,3.93
2023-03-21T03:51:26.522Z,4.60
2023-03-21T03:53:58.875Z,4.50
2023-03-21T03:56:29.973Z,4.30
2023-03-21T03:58:58.722Z,4.20
2023-03-21T04:01:28.213Z,5.03
2023-03-21T04:04:10.401Z,5.00
2023-03-21T04:06:53.051Z,3.87
2023-03-21T04:09:31.350Z,4.90
2023-03-21T04:12:07.017Z,4.27
2023-03-21T04:14:43.953Z,4.40
2023-03-21T04:17:13.513Z,5.00
2023-03-21T04:19:41.669Z,4.67
2023-03-21T04:22:09.959Z,4.03
2023-03-21T04:24:38.678Z,4.93
2023-03-21T04:27:08.241Z,4.80
2023-03-21T04:29:36.375Z,5.83
2023-03-21T04:32:04.500Z,4.60
2023-03-21T04:34:32.930Z,5.07
2023-03-21T04:37:00.949Z,4.90
2023-03-21T04:39:28.926Z,6.27
2023-03-21T04:41:57.395Z,5.33
2023-03-21T04:44:27.144Z,5.60
2023-03-21T04:46:55.213Z,5.00
2023-03-21T04:49:23.250Z,4.77
2023-03-21T04:51:51.440Z,5.77
2023-03-21T04:54:21.122Z,5.20
2023-03-21T04:56:49.261Z,4.70
2023-03-21T04:59:17.963Z,5.80
2023-03-21T05:01:47.473Z,5.60
2023-03-21T05:04:15.800Z,5.43
2023-03-21T05:06:44.373Z,5.57
2023-03-21T05:09:13.041Z,5.90
2023-03-21T05:11:41.910Z,5.30
2023-03-21T05:14:12.396Z,5.83
2023-03-21T05:16:48.668Z,6.97
2023-03-21T05:19:19.125Z,6.20
2023-03-21T05:21:47.561Z,5.90
2023-03-21T05:24:17.036Z,6.63
2023-03-21T05:26:50.477Z,6.60
2023-03-21T05:29:20.361Z,5.17
2023-03-21T05:31:48.896Z,5.47
2023-03-21T05:34:18.641Z,5.90
2023-03-21T05:36:47.013Z,5.23
2023-03-21T05:39:15.004Z,5.13
2023-03-21T05:41:43.093Z,6.30
2023-03-21T05:44:11.181Z,5.30
2023-03-21T05:46:39.326Z,5.33
2023-03-21T05:49:07.570Z,5.50
2023-03-21T05:51:37.339Z,6.23
2023-03-21T05:54:06.480Z,5.23
2023-03-21T05:56:34.666Z,5.30
2023-03-21T05:59:02.714Z,5.10
2023-03-21T06:01:31.048Z,5.43
2023-03-21T06:03:59.520Z,5.50
2023-03-21T06:06:29.115Z,5.60
2023-03-21T06:08:59.228Z,4.37
2023-03-21T06:11:30.045Z,5.03
2023-03-21T06:13:58.430Z,5.10
2023-03-21T06:16:26.872Z,4.73
2023-03-21T06:18:55.728Z,4.97
2023-03-21T06:21:26.714Z,4.70
2023-03-21T06:23:55.396Z,6.77
2023-03-21T06:26:28.267Z,5.23
2023-03-21T06:28:57.680Z,5.20
2023-03-21T06:31:37.179Z,4.90
2023-03-21T06:34:06.947Z,5.33
2023-03-21T06:36:36.198Z,5.13
2023-03-21T06:39:05.252Z,4.80
2023-03-21T06:41:35.802Z,5.70
2023-03-21T06:44:04.771Z,5.03
2023-03-21T06:46:33.498Z,4.67
2023-03-21T06:49:02.197Z,4.97
2023-03-21T06:51:30.975Z,5.90
2023-03-21T06:53:59.552Z,4.73
2023-03-21T06:56:28.193Z,5.10
2023-03-21T06:58:57.871Z,4.33
2023-03-21T07:01:27.686Z,4.47
2023-03-21T07:03:57.452Z,5.63
2023-03-21T07:06:26.497Z,5.40
2023-03-21T07:08:55.448Z,5.00
2023-03-21T07:11:24.517Z,4.77
2023-03-21T07:13:53.487Z,4.70
2023-03-21T07:16:23.195Z,4.13
2023-03-21T07:18:51.187Z,5.10
2023-03-21T07:21:19.744Z,4.43
2023-03-21T07:23:50.269Z,4.40
2023-03-21T07:26:18.876Z,4.37
2023-03-21T07:28:47.086Z,3.90
2023-03-21T07:31:17.335Z,4.33
2023-03-21T07:33:47.008Z,4.30
2023-03-21T07:36:20.026Z,4.83
2023-03-21T07:38:48.108Z,3.90
2023-03-21T07:43:44.271Z,3.53
2023-03-21T07:46:12.351Z,4.15
2023-03-21T07:48:40.366Z,3.30
2023-03-21T07:51:10.013Z,3.65
2023-03-21T07:53:38.248Z,3.55
2023-03-21T07:56:07.643Z,3.38
2023-03-21T07:58:35.726Z,2.97
2023-03-21T08:01:03.710Z,3.22
2023-03-21T08:03:33.379Z,3.80
2023-03-21T08:06:02.022Z,3.08
2023-03-21T08:08:32.032Z,3.38
2023-03-21T08:11:00.365Z,3.15
2023-03-21T08:13:29.163Z,3.25
2023-03-21T08:15:57.272Z,3.33
2023-03-21T08:18:25.522Z,3.22
2023-03-21T08:20:54.357Z,3.05
2023-03-21T08:23:23.789Z,3.13
2023-03-21T08:25:54.893Z,3.88
2023-03-21T08:28:23.758Z,3.40
2023-03-21T08:30:52.123Z,3.30
2023-03-21T08:33:20.527Z,3.35
2023-03-21T08:35:49.059Z,2.95
2023-03-21T08:38:17.338Z,3.35
2023-03-21T08:40:51.977Z,3.28
2023-03-21T08:43:21.416Z,3.70
2023-03-21T08:45:49.953Z,3.50
2023-03-21T08:48:18.074Z,3.33
2023-03-21T08:50:46.840Z,3.40
2023-03-21T08:53:15.334Z,3.42
2023-03-21T08:55:44.506Z,3.75
2023-03-21T08:58:12.784Z,3.30
2023-03-21T09:00:42.422Z,3.53
2023-03-21T09:03:11.765Z,3.72
2023-03-21T09:05:40.234Z,3.10
2023-03-21T09:08:08.825Z,3.33
2023-03-21T09:10:37.233Z,3.35
2023-03-21T09:13:06.076Z,4.13
2023-03-21T09:15:35.563Z,3.10
2023-03-21T09:18:13.848Z,3.53
2023-03-21T09:20:43.214Z,3.42
2023-03-21T09:23:12.245Z,2.70
2023-03-21T09:25:40.969Z,3.00
2023-03-21T09:28:09.806Z,2.97
2023-03-21T09:30:38.768Z,3.38
2023-03-21T09:33:09.004Z,2.95
2023-03-21T09:35:37.707Z,3.38
2023-03-21T09:38:06.326Z,3.25
2023-03-21T09:40:52.827Z,3.00
2023-03-21T09:43:34.299Z,3.00
2023-03-21T09:46:11.593Z,3.28
2023-03-21T09:48:57.750Z,2.92
2023-03-21T09:51:30.245Z,3.15
2023-03-21T09:54:02.740Z,2.70
2023-03-21T09:56:31.350Z,3.38
2023-03-21T09:59:01.514Z,2.58
2023-03-21T10:01:32.966Z,3.70
2023-03-21T10:04:05.956Z,3.03
2023-03-21T10:06:40.219Z,2.53
2023-03-21T10:09:14.537Z,3.10
2023-03-21T10:11:46.312Z,2.13
2023-03-21T10:14:20.277Z,2.78
2023-03-21T10:16:51.074Z,2.78
2023-03-21T10:19:21.181Z,2.80
2023-03-21T10:22:02.636Z,2.28
2023-03-21T10:24:35.014Z,2.80
2023-03-21T10:27:04.371Z,3.75
2023-03-21T10:29:43.340Z,2.90
2023-03-21T10:32:13.922Z,3.30
2023-03-21T10:34:46.963Z,2.97
2023-03-21T10:37:16.868Z,2.97
2023-03-21T10:39:48.305Z,2.65
2023-03-21T10:42:23.500Z,3.25
2023-03-21T10:44:53.690Z,3.60
2023-03-21T10:47:23.841Z,3.20
2023-03-21T10:50:10.515Z,3.55
2023-03-21T10:52:43.368Z,3.72
2023-03-21T10:55:21.380Z,3.40
2023-03-21T10:57:50.151Z,3.00
2023-03-21T11:00:22.525Z,3.30
2023-03-21T11:02:52.310Z,3.20
2023-03-21T11:05:25.227Z,3.00
2023-03-21T11:08:01.535Z,3.28
2023-03-21T11:10:32.312Z,3.40
2023-03-21T11:13:06.664Z,3.20
2023-03-21T11:15:42.986Z,3.00
2023-03-21T11:18:20.603Z,3.83
2023-03-21T11:20:55.788Z,4.40
2023-03-21T11:23:29.675Z,3.42
2023-03-21T11:26:00.535Z,3.58
2023-03-21T11:28:37.155Z,3.55
2023-03-21T11:31:06.937Z,3.80
2023-03-21T11:33:38.473Z,3.47
2023-03-21T11:36:25.560Z,3.40
2023-03-21T11:38:55.319Z,3.53
2023-03-21T11:41:25.170Z,3.53
2023-03-21T11:43:54.297Z,3.67
2023-03-21T11:46:26.269Z,2.70
2023-03-21T11:48:56.210Z,3.57
2023-03-21T11:51:31.754Z,4.13
2023-03-21T11:54:08.347Z,4.00
2023-03-21T11:56:42.739Z,3.43
2023-03-21T11:59:27.880Z,3.30
2023-03-21T12:02:06.859Z,2.90
2023-03-21T12:04:41.592Z,3.80
2023-03-21T12:07:42.015Z,3.53
2023-03-21T12:10:31.677Z,3.00
2023-03-21T12:13:09.701Z,4.30
2023-03-21T12:15:44.242Z,3.60
2023-03-21T12:18:34.018Z,4.57
2023-03-21T12:21:08.101Z,3.67
2023-03-21T12:23:48.684Z,3.87
2023-03-21T12:26:24.360Z,3.40
2023-03-21T12:29:10.677Z,3.50
2023-03-21T12:31:50.787Z,3.20
2023-03-21T12:34:33.259Z,3.10
2023-03-21T12:37:11.124Z,4.00
2023-03-21T12:39:41.354Z,3.80
2023-03-21T12:42:40.481Z,3.63
2023-03-21T12:45:16.766Z,3.80
2023-03-21T12:47:50.528Z,4.13
2023-03-21T12:50:24.276Z,3.60
2023-03-21T12:52:57.020Z,4.13
2023-03-21T12:55:32.747Z,3.10
2023-03-21T12:58:05.850Z,5.30
2023-03-21T13:00:44.189Z,4.17
2023-03-21T13:03:30.272Z,3.53
2023-03-21T13:08:37.025Z,3.50
2023-03-21T13:11:08.693Z,4.33
2023-03-21T13:13:40.624Z,3.33
2023-03-21T13:16:14.070Z,2.80
2023-03-21T13:18:59.259Z,4.23
2023-03-21T13:21:44.383Z,3.73
2023-03-21T13:24:27.913Z,3.40
2023-03-21T13:27:06.535Z,7.83
2023-03-21T13:29:44.179Z,3.70
2023-03-21T13:32:20.018Z,4.47
2023-03-21T13:34:56.214Z,2.90
2023-03-21T13:37:26.668Z,3.67
2023-03-21T13:39:54.786Z,3.47
2023-03-21T13:42:31.783Z,3.60
2023-03-21T13:45:02.297Z,3.40
2023-03-21T13:47:40.110Z,3.03
2023-03-21T13:50:27.679Z,3.20
2023-03-21T13:53:20.591Z,2.80
2023-03-21T13:56:08.352Z,3.17
2023-03-21T13:58:40.005Z,2.20
2023-03-21T14:01:31.986Z,2.27
2023-03-21T14:04:02.192Z,2.57
2023-03-21T14:06:39.096Z,2.53
2023-03-21T14:09:07.935Z,2.03
2023-03-21T14:11:41.965Z,2.70
2023-03-21T14:14:14.153Z,2.77
2023-03-21T14:16:43.237Z,2.30
2023-03-21T14:19:13.695Z,2.50
2023-03-21T14:21:50.402Z,2.67
2023-03-21T14:24:19.427Z,2.77
2023-03-21T14:26:49.871Z,1.97
2023-03-21T14:29:26.571Z,1.93
2023-03-21T14:31:56.218Z,1.80
2023-03-21T14:34:26.154Z,1.97
2023-03-21T14:36:58.827Z,1.43
2023-03-21T14:39:29.803Z,2.53
2023-03-21T14:42:04.855Z,1.87
2023-03-21T14:44:53.819Z,2.30
2023-03-21T14:47:25.573Z,1.90
2023-03-21T14:49:57.586Z,2.17
2023-03-21T14:52:28.108Z,2.60
2023-03-21T14:54:58.210Z,2.20
2023-03-21T14:57:30.079Z,2.20
2023-03-21T15:00:06.350Z,2.17
2023-03-21T15:02:40.394Z,1.67
2023-03-21T15:05:15.534Z,2.13
2023-03-21T15:07:44.163Z,2.10
2023-03-21T15:10:18.227Z,1.63
2023-03-21T15:12:55.042Z,1.90
2023-03-21T15:15:27.578Z,2.80
2023-03-21T15:17:59.583Z,1.60
2023-03-21T15:20:33.350Z,2.10
2023-03-21T15:23:04.792Z,2.17
2023-03-21T15:25:37.270Z,2.60
2023-03-21T15:28:06.700Z,2.37
2023-03-21T15:30:36.454Z,2.40
2023-03-21T15:33:10.544Z,2.30
2023-03-21T15:35:46.178Z,2.50
2023-03-21T15:38:24.485Z,1.90
2023-03-21T15:41:14.481Z,2.10
2023-03-21T15:43:43.282Z,1.30
2023-03-21T15:46:18.103Z,2.10
2023-03-21T15:48:47.031Z,2.20
2023-03-21T15:51:23.202Z,1.87
2023-03-21T15:53:54.833Z,1.37
2023-03-21T15:56:24.054Z,2.17
2023-03-21T15:58:54.857Z,1.27
2023-03-21T16:01:27.378Z,2.50
2023-03-21T16:04:10.159Z,1.67
2023-03-21T16:06:40.185Z,1.60
2023-03-21T16:09:14.275Z,1.90
2023-03-21T16:11:43.918Z,2.23
2023-03-21T16:14:13.910Z,1.70
2023-03-21T16:16:43.640Z,1.90
2023-03-21T16:19:11.808Z,1.63
2023-03-21T16:21:40.073Z,1.50
2023-03-21T16:24:12.595Z,2.00
2023-03-21T16:26:45.771Z,1.50
2023-03-21T16:29:18.427Z,2.20
2023-03-21T16:31:50.963Z,1.93
2023-03-21T16:34:20.689Z,2.27
2023-03-21T16:36:50.802Z,3.03
2023-03-21T16:39:22.668Z,1.60
2023-03-21T16:41:51.405Z,2.07
2023-03-21T16:44:20.081Z,3.07
2023-03-21T16:46:49.562Z,1.90
2023-03-21T16:49:21.373Z,2.60
2023-03-21T16:51:49.396Z,1.90
2023-03-21T16:54:17.423Z,1.77
2023-03-21T16:56:50.142Z,2.13
2023-03-21T16:59:18.270Z,2.30
2023-03-21T17:01:48.168Z,2.20
2023-03-21T17:04:19.054Z,2.10
2023-03-21T17:06:52.277Z,2.50
2023-03-21T17:09:22.593Z,1.70
2023-03-21T17:11:53.551Z,2.13
2023-03-21T17:14:22.225Z,2.80
2023-03-21T17:16:50.381Z,2.00
2023-03-21T17:19:23.838Z,2.93
2023-03-21T17:21:51.902Z,2.53
2023-03-21T17:24:23.196Z,3.07
2023-03-21T17:26:51.262Z,2.67
2023-03-21T17:29:19.419Z,2.63
2023-03-21T17:31:50.262Z,3.20
2023-03-21T17:34:19.991Z,2.87
2023-03-21T17:36:49.931Z,3.47
2023-03-21T17:39:21.459Z,3.43
2023-03-21T17:41:50.077Z,3.23
2023-03-21T17:44:18.105Z,4.27
2023-03-21T17:46:46.623Z,3.63
2023-03-21T17:49:16.500Z,4.03
2023-03-21T17:51:46.982Z,4.60
2023-03-21T17:54:15.228Z,4.00
2023-03-21T17:56:43.357Z,3.70
2023-03-21T17:59:15.106Z,4.10
2023-03-21T18:01:43.283Z,3.77
2023-03-21T18:04:11.318Z,4.80
2023-03-21T18:06:39.877Z,4.00
2023-03-21T18:09:11.941Z,5.10
2023-03-21T18:11:41.591Z,4.00
2023-03-21T18:14:19.457Z,4.10
2023-03-21T18:16:51.051Z,4.37
2023-03-21T18:19:19.262Z,4.20
2023-03-21T18:21:47.223Z,5.60
2023-03-21T18:24:16.871Z,4.70
2023-03-21T18:26:46.128Z,4.70
2023-03-21T18:32:07.694Z,4.73
2023-03-21T18:34:37.350Z,5.50
2023-03-21T18:37:07.608Z,5.83
2023-03-21T18:39:38.186Z,5.03
2023-03-21T18:42:06.969Z,5.97
2023-03-21T18:44:45.533Z,6.77
2023-03-21T18:47:14.304Z,4.60
2023-03-21T18:50:13.313Z,4.33
2023-03-21T18:52:30.471Z,4.90
2023-03-21T18:54:59.855Z,5.03
2023-03-21T18:57:36.468Z,4.97
2023-03-21T19:00:11.124Z,5.23
2023-03-21T19:02:45.621Z,4.97
2023-03-21T19:05:15.682Z,6.07
2023-03-21T19:07:43.967Z,4.53
2023-03-21T19:10:19.378Z,5.80
2023-03-21T19:12:48.832Z,5.50
2023-03-21T19:15:19.670Z,4.20
2023-03-21T19:20:37.912Z,5.53
2023-03-21T19:23:08.238Z,4.80
2023-03-21T19:25:39.065Z,4.97
2023-03-21T19:28:07.263Z,4.90
2023-03-21T19:30:35.478Z,5.17
2023-03-21T19:33:03.442Z,4.40
2023-03-21T19:35:32.026Z,4.70
2023-03-21T19:38:00.014Z,4.33
2023-03-21T19:40:28.188Z,4.60
2023-03-21T19:42:58.118Z,4.83
2023-03-21T19:45:26.548Z,4.87
2023-03-21T19:47:54.678Z,5.50
2023-03-21T19:50:49.141Z,4.70
2023-03-21T19:53:17.476Z,5.20
2023-03-21T19:55:45.758Z,5.10
2023-03-21T19:58:16.407Z,4.70
2023-03-21T20:00:44.783Z,4.90
2023-03-21T20:03:13.875Z,5.30
2023-03-21T20:05:42.107Z,5.27
2023-03-21T20:08:11.085Z,5.60
2023-03-21T20:10:39.486Z,4.90
2023-03-21T20:13:07.781Z,5.17
2023-03-21T20:15:46.006Z,6.53
2023-03-21T20:18:16.222Z,6.97
2023-03-21T20:20:44.229Z,7.73
2023-03-21T20:23:12.195Z,6.37
2023-03-21T20:25:41.024Z,8.70
2023-03-21T20:28:24.274Z,8.50
2023-03-21T20:30:58.282Z,6.93
2023-03-21T20:33:26.517Z,6.40
2023-03-21T20:38:48.496Z,6.50
2023-03-21T20:41:17.024Z,6.97
2023-03-21T20:44:28.513Z,6.07
2023-03-21T20:46:36.452Z,7.03
2023-03-21T20:49:07.345Z,7.70
2023-03-21T20:54:24.501Z,6.97
2023-03-21T20:56:52.518Z,7.60
2023-03-21T20:59:26.411Z,7.30
2023-03-21T21:01:58.212Z,7.63
2023-03-21T21:04:46.879Z,6.93
2023-03-21T21:07:18.067Z,7.63
2023-03-21T21:09:47.072Z,8.00
2023-03-21T21:12:17.297Z,7.10
2023-03-21T21:14:45.655Z,6.33
2023-03-21T21:20:12.212Z,6.83
2023-03-21T21:22:42.890Z,7.70
2023-03-21T21:25:15.615Z,7.93
2023-03-21T21:27:43.930Z,7.43
2023-03-21T21:30:13.509Z,7.20
2023-03-21T21:32:42.756Z,6.97
2023-03-21T21:35:11.027Z,7.73
2023-03-21T21:37:41.856Z,7.40
2023-03-21T21:40:12.966Z,7.70
2023-03-21T21:42:42.773Z,8.67
2023-03-21T21:45:11.944Z,8.50
2023-03-21T21:47:40.592Z,8.77
2023-03-21T21:50:11.801Z,9.00
2023-03-21T21:52:43.475Z,7.57
2023-03-21T21:55:13.124Z,7.60
2023-03-21T21:57:41.161Z,8.27
2023-03-21T22:00:13.094Z,8.77
2023-03-21T22:02:42.111Z,8.33
2023-03-21T22:05:11.757Z,7.40
2023-03-21T22:07:39.886Z,8.50
2023-03-21T22:10:08.702Z,6.90
2023-03-21T22:12:36.650Z,6.93
2023-03-21T22:15:06.851Z,8.60
2023-03-21T22:17:34.955Z,8.97
2023-03-21T22:20:06.812Z,8.80
2023-03-21T22:22:37.081Z,9.37
2023-03-21T22:25:06.258Z,7.60
2023-03-21T22:27:34.867Z,7.70
2023-03-21T22:30:05.559Z,6.50
2023-03-21T22:32:34.129Z,7.23
2023-03-21T22:35:02.821Z,7.73
2023-03-21T22:37:31.040Z,7.57
2023-03-21T22:40:00.408Z,8.73
2023-03-21T22:42:28.715Z,7.77
2023-03-21T22:44:56.650Z,7.70
2023-03-21T22:47:24.612Z,8.70
2023-03-21T22:49:52.555Z,9.47
2023-03-21T22:52:20.485Z,8.23
2023-03-21T22:54:49.150Z,9.03
2023-03-21T22:57:20.139Z,9.30
2023-03-21T22:59:48.336Z,8.63
2023-03-21T23:02:16.690Z,9.20
2023-03-21T23:04:44.908Z,9.83
2023-03-21T23:07:12.929Z,9.60
2023-03-21T23:09:41.115Z,10.27
2023-03-21T23:12:09.122Z,10.27
2023-03-21T23:14:38.423Z,10.60
2023-03-21T23:17:06.388Z,10.37
2023-03-21T23:19:34.315Z,10.90
2023-03-21T23:22:02.253Z,10.70
2023-03-21T23:24:30.262Z,9.57
2023-03-21T23:26:58.201Z,10.47
2023-03-21T23:29:26.171Z,10.87
2023-03-21T23:31:55.508Z,8.23
2023-03-21T23:34:23.529Z,9.33
2023-03-21T23:36:51.579Z,9.40
2023-03-21T23:39:20.154Z,8.13
2023-03-21T23:41:48.080Z,7.70
2023-03-21T23:44:16.346Z,9.07
2023-03-21T23:46:44.267Z,8.60
2023-03-21T23:49:15.054Z,8.33
2023-03-21T23:51:43.113Z,9.20
2023-03-21T23:54:11.182Z,7.73
2023-03-21T23:56:39.455Z,9.10
2023-03-21T23:59:07.401Z,8.53
